createdAt,value
2019-05-23T00:02:06.934Z,8.80
2019-05-23T00:05:11.835Z,8.80
2019-05-23T00:07:58.776Z,8.80
2019-05-23T00:10:52.401Z,8.80
2019-05-23T00:14:02.465Z,8.70
2019-05-23T00:16:31.396Z,8.60
2019-05-23T00:18:59.785Z,8.60
2019-05-23T00:21:27.218Z,8.60
2019-05-23T00:23:55.010Z,8.70
2019-05-23T00:26:22.586Z,8.70
2019-05-23T00:28:51.248Z,8.60
2019-05-23T00:31:23.268Z,8.50
2019-05-23T00:33:51.505Z,8.50
2019-05-23T00:36:20.740Z,8.40
2019-05-23T00:38:49.086Z,8.40
2019-05-23T00:41:18.496Z,8.40
2019-05-23T00:43:46.360Z,8.40
2019-05-23T00:46:14.495Z,8.40
2019-05-23T00:48:42.078Z,8.40
2019-05-23T00:51:11.267Z,8.40
2019-05-23T00:53:38.484Z,8.30
2019-05-23T00:56:06.290Z,8.30
2019-05-23T00:58:34.381Z,8.30
2019-05-23T01:01:02.241Z,8.20
2019-05-23T01:03:31.395Z,8.20
2019-05-23T01:05:59.578Z,8.20
2019-05-23T01:08:30.021Z,8.10
2019-05-23T01:10:57.694Z,8.10
2019-05-23T01:13:27.192Z,8.00
2019-05-23T01:15:54.831Z,7.80
2019-05-23T01:18:22.768Z,8.00
2019-05-23T01:21:08.098Z,8.10
2019-05-23T01:23:39.809Z,8.10
2019-05-23T01:26:08.220Z,8.20
2019-05-23T01:28:35.705Z,8.20
2019-05-23T01:31:07.094Z,8.10
2019-05-23T01:33:34.942Z,7.80
2019-05-23T01:36:02.619Z,7.90
2019-05-23T01:38:30.344Z,7.90
2019-05-23T01:40:57.575Z,7.90
2019-05-23T01:43:25.412Z,8.00
2019-05-23T01:45:53.001Z,7.70
2019-05-23T01:48:20.591Z,7.80
2019-05-23T01:50:48.430Z,7.80
2019-05-23T01:53:16.417Z,7.70
2019-05-23T01:55:43.706Z,7.80
2019-05-23T01:58:11.562Z,7.90
2019-05-23T02:00:39.691Z,7.90
2019-05-23T02:03:07.523Z,7.70
2019-05-23T02:05:36.103Z,7.60
2019-05-23T02:08:04.317Z,7.60
2019-05-23T02:10:31.986Z,7.80
2019-05-23T02:13:00.290Z,7.80
2019-05-23T02:15:29.450Z,7.70
2019-05-23T02:17:57.271Z,7.80
2019-05-23T02:20:24.842Z,7.80
2019-05-23T02:22:52.330Z,7.80
2019-05-23T02:25:22.858Z,7.60
2019-05-23T02:27:50.254Z,7.60
2019-05-23T02:30:32.895Z,7.60
2019-05-23T02:32:50.545Z,7.70
2019-05-23T02:35:19.126Z,7.70
2019-05-23T02:38:03.530Z,7.60
2019-05-23T02:40:39.123Z,7.60
2019-05-23T02:43:07.062Z,7.50
2019-05-23T02:45:42.459Z,7.50
2019-05-23T02:48:14.407Z,7.50
2019-05-23T02:50:50.079Z,7.50
2019-05-23T02:53:20.262Z,7.50
2019-05-23T02:55:53.489Z,7.40
2019-05-23T02:58:33.820Z,7.50
2019-05-23T03:01:51.103Z,7.50
2019-05-23T03:04:22.155Z,7.50
2019-05-23T03:06:50.923Z,7.50
2019-05-23T03:09:21.855Z,7.50
2019-05-23T03:11:52.581Z,7.50
2019-05-23T03:14:21.996Z,7.50
2019-05-23T03:16:51.966Z,7.50
2019-05-23T03:19:38.217Z,7.50
2019-05-23T03:22:27.336Z,7.50
2019-05-23T03:24:57.987Z,7.50
2019-05-23T03:27:25.826Z,7.40
2019-05-23T03:29:52.938Z,7.40
2019-05-23T03:32:39.624Z,7.30
2019-05-23T03:35:16.957Z,7.30
2019-05-23T03:37:45.225Z,7.30
2019-05-23T03:40:12.944Z,7.30
2019-05-23T03:42:40.657Z,7.30
2019-05-23T03:45:11.612Z,7.30
2019-05-23T03:47:38.922Z,7.30
2019-05-23T03:50:07.052Z,7.30
2019-05-23T03:52:36.946Z,7.30
2019-05-23T03:55:06.359Z,7.30
2019-05-23T03:57:34.054Z,7.50
2019-05-23T04:00:01.519Z,7.50
2019-05-23T04:02:30.938Z,7.60
2019-05-23T04:04:59.974Z,7.50
2019-05-23T04:07:27.083Z,7.50
2019-05-23T04:09:54.628Z,7.50
2019-05-23T04:12:22.667Z,7.60
2019-05-23T04:14:49.841Z,7.70
2019-05-23T04:17:17.700Z,8.00
2019-05-23T04:19:45.483Z,9.20
2019-05-23T04:22:12.672Z,9.40
2019-05-23T04:24:40.308Z,9.30
2019-05-23T04:27:07.957Z,10.30
2019-05-23T04:29:35.594Z,11.40
2019-05-23T04:32:08.501Z,12.20
2019-05-23T04:34:34.098Z,12.40
2019-05-23T04:37:01.199Z,12.90
2019-05-23T04:39:28.851Z,12.80
2019-05-23T04:41:56.171Z,12.80
2019-05-23T04:44:23.350Z,13.30
2019-05-23T04:46:50.653Z,13.90
2019-05-23T04:49:17.839Z,14.20
2019-05-23T04:51:45.642Z,14.50
2019-05-23T04:54:13.453Z,14.80
2019-05-23T04:56:40.750Z,15.20
2019-05-23T04:59:07.823Z,14.60
2019-05-23T05:01:35.434Z,13.80
2019-05-23T05:04:02.922Z,13.20
2019-05-23T05:06:31.554Z,12.60
2019-05-23T05:09:00.007Z,12.40
2019-05-23T05:11:30.330Z,12.10
2019-05-23T05:13:56.477Z,11.90
2019-05-23T05:16:23.734Z,11.70
2019-05-23T05:18:50.958Z,11.50
2019-05-23T05:21:18.607Z,11.50
2019-05-23T05:23:46.096Z,11.40
2019-05-23T05:26:21.286Z,11.30
2019-05-23T05:28:50.743Z,11.30
2019-05-23T05:31:18.406Z,11.40
2019-05-23T05:33:45.707Z,11.50
2019-05-23T05:36:13.157Z,11.40
2019-05-23T05:38:40.561Z,11.60
2019-05-23T05:41:07.744Z,11.60
2019-05-23T05:43:35.665Z,11.60
2019-05-23T05:46:03.235Z,12.00
2019-05-23T05:48:30.448Z,12.00
2019-05-23T05:50:57.838Z,12.00
2019-05-23T05:53:25.413Z,12.10
2019-05-23T05:55:52.596Z,12.20
2019-05-23T05:58:19.819Z,12.20
2019-05-23T06:01:00.295Z,12.20
2019-05-23T06:03:27.610Z,12.20
2019-05-23T06:06:11.221Z,12.10
2019-05-23T06:08:40.275Z,12.10
2019-05-23T06:11:08.029Z,12.10
2019-05-23T06:13:35.442Z,12.00
2019-05-23T06:16:02.626Z,11.90
2019-05-23T06:18:30.099Z,12.10
2019-05-23T06:20:58.854Z,12.10
2019-05-23T06:23:26.752Z,12.20
2019-05-23T06:25:54.038Z,12.10
2019-05-23T06:28:21.771Z,12.20
2019-05-23T06:30:50.209Z,12.20
2019-05-23T06:33:23.081Z,12.30
2019-05-23T06:35:46.878Z,12.20
2019-05-23T06:38:14.284Z,12.20
2019-05-23T06:40:41.919Z,12.20
2019-05-23T06:43:09.844Z,12.20
2019-05-23T06:45:38.867Z,12.40
2019-05-23T06:48:06.909Z,12.40
2019-05-23T06:50:34.087Z,12.50
2019-05-23T06:53:01.627Z,12.60
2019-05-23T06:55:30.155Z,12.60
2019-05-23T06:57:57.756Z,12.60
2019-05-23T07:00:26.790Z,12.60
2019-05-23T07:02:54.250Z,12.70
2019-05-23T07:05:27.331Z,12.80
2019-05-23T07:07:54.524Z,12.90
2019-05-23T07:10:23.992Z,12.90
2019-05-23T07:12:51.329Z,13.10
2019-05-23T07:15:18.726Z,13.20
2019-05-23T07:17:45.822Z,13.30
2019-05-23T07:20:13.424Z,13.30
2019-05-23T07:22:40.805Z,13.50
2019-05-23T07:25:08.298Z,13.50
2019-05-23T07:27:35.971Z,13.60
2019-05-23T07:30:06.898Z,13.70
2019-05-23T07:32:34.174Z,13.80
2019-05-23T07:35:01.641Z,13.80
2019-05-23T07:37:28.819Z,13.90
2019-05-23T07:39:56.097Z,13.90
2019-05-23T07:42:23.297Z,14.10
2019-05-23T07:44:53.146Z,14.20
2019-05-23T07:47:21.217Z,14.30
2019-05-23T07:49:48.796Z,14.40
2019-05-23T07:52:16.473Z,14.40
2019-05-23T07:54:49.788Z,14.50
2019-05-23T07:57:17.461Z,14.60
2019-05-23T07:59:45.023Z,14.70
2019-05-23T08:02:35.857Z,14.80
2019-05-23T08:05:04.130Z,14.80
2019-05-23T08:07:33.289Z,14.90
2019-05-23T08:10:00.503Z,14.90
2019-05-23T08:12:27.919Z,15.00
2019-05-23T08:14:55.125Z,15.10
2019-05-23T08:17:22.812Z,15.20
2019-05-23T08:19:50.582Z,15.20
2019-05-23T08:22:18.209Z,15.30
2019-05-23T08:24:45.504Z,15.40
2019-05-23T08:27:12.685Z,15.40
2019-05-23T08:29:39.998Z,15.40
2019-05-23T08:32:07.056Z,15.30
2019-05-23T08:34:41.485Z,15.40
2019-05-23T08:37:03.647Z,15.30
2019-05-23T08:39:31.939Z,15.20
2019-05-23T08:41:59.931Z,15.30
2019-05-23T08:44:29.478Z,15.40
2019-05-23T08:46:56.666Z,15.50
2019-05-23T08:49:24.290Z,15.50
2019-05-23T08:51:51.696Z,15.50
2019-05-23T08:54:19.139Z,15.50
2019-05-23T08:56:46.328Z,15.40
2019-05-23T08:59:15.002Z,15.40
2019-05-23T09:01:42.312Z,15.50
2019-05-23T09:04:10.082Z,15.60
2019-05-23T09:06:37.744Z,15.70
2019-05-23T09:09:27.740Z,15.80
2019-05-23T09:11:36.586Z,15.80
2019-05-23T09:14:04.339Z,15.80
2019-05-23T09:16:33.316Z,15.90
2019-05-23T09:19:00.505Z,16.00
2019-05-23T09:21:27.691Z,16.10
2019-05-23T09:23:54.980Z,16.20
2019-05-23T09:26:23.018Z,16.20
2019-05-23T09:28:50.503Z,16.20
2019-05-23T09:31:19.629Z,16.20
2019-05-23T09:33:47.062Z,16.30
2019-05-23T09:36:15.642Z,16.20
2019-05-23T09:38:43.292Z,16.10
2019-05-23T09:41:10.530Z,16.10
2019-05-23T09:43:37.981Z,16.10
2019-05-23T09:46:06.184Z,16.20
2019-05-23T09:48:33.701Z,16.10
2019-05-23T09:51:00.877Z,16.00
2019-05-23T09:53:28.559Z,16.00
2019-05-23T09:55:56.105Z,16.10
2019-05-23T09:58:23.575Z,16.20
2019-05-23T10:00:50.754Z,16.30
2019-05-23T10:03:18.202Z,16.30
2019-05-23T10:05:45.941Z,16.40
2019-05-23T10:08:13.488Z,16.40
2019-05-23T10:10:41.335Z,16.50
2019-05-23T10:13:08.828Z,16.70
2019-05-23T10:15:54.130Z,16.80
2019-05-23T10:18:21.678Z,16.80
2019-05-23T10:20:49.214Z,16.80
2019-05-23T10:23:16.855Z,16.80
2019-05-23T10:25:44.515Z,17.00
2019-05-23T10:28:11.899Z,17.10
2019-05-23T10:30:39.575Z,17.20
2019-05-23T10:33:11.983Z,17.20
2019-05-23T10:35:37.488Z,17.20
2019-05-23T10:38:04.713Z,17.20
2019-05-23T10:40:32.172Z,17.20
2019-05-23T10:42:59.704Z,17.30
2019-05-23T10:45:27.975Z,17.30
2019-05-23T10:47:55.276Z,17.40
2019-05-23T10:50:22.739Z,17.50
2019-05-23T10:52:49.951Z,17.50
2019-05-23T10:55:17.355Z,17.60
2019-05-23T10:57:44.540Z,17.60
2019-05-23T11:00:13.819Z,17.60
2019-05-23T11:02:41.582Z,17.60
2019-05-23T11:05:13.597Z,17.80
2019-05-23T11:07:40.069Z,17.90
2019-05-23T11:10:07.460Z,17.90
2019-05-23T11:12:35.213Z,17.90
2019-05-23T11:15:02.626Z,18.00
2019-05-23T11:17:29.901Z,18.00
2019-05-23T11:19:57.086Z,18.20
2019-05-23T11:22:24.268Z,18.30
2019-05-23T11:24:51.535Z,18.30
2019-05-23T11:27:19.055Z,18.30
2019-05-23T11:29:46.425Z,18.40
2019-05-23T11:32:19.571Z,18.20
2019-05-23T11:34:44.153Z,18.30
2019-05-23T11:37:11.605Z,18.40
2019-05-23T11:39:42.169Z,18.30
2019-05-23T11:42:08.227Z,18.20
2019-05-23T11:44:35.301Z,18.10
2019-05-23T11:47:03.990Z,18.10
2019-05-23T11:49:30.964Z,17.80
2019-05-23T11:51:58.853Z,17.60
2019-05-23T11:54:27.239Z,17.50
2019-05-23T11:56:55.532Z,17.50
2019-05-23T11:59:22.709Z,17.50
2019-05-23T12:02:03.195Z,17.40
2019-05-23T12:04:34.566Z,17.50
2019-05-23T12:07:33.068Z,17.50
2019-05-23T12:10:00.584Z,17.60
2019-05-23T12:12:27.754Z,17.60
2019-05-23T12:14:55.473Z,17.60
2019-05-23T12:17:24.389Z,17.70
2019-05-23T12:19:51.688Z,17.80
2019-05-23T12:22:19.153Z,17.80
2019-05-23T12:24:46.368Z,17.90
2019-05-23T12:27:13.767Z,17.80
2019-05-23T12:29:41.030Z,17.90
2019-05-23T12:32:09.872Z,17.90
2019-05-23T12:34:36.960Z,18.00
2019-05-23T12:37:18.359Z,18.10
2019-05-23T12:39:34.004Z,18.20
2019-05-23T12:42:00.986Z,18.30
2019-05-23T12:44:28.449Z,18.40
2019-05-23T12:46:55.693Z,18.40
2019-05-23T12:49:54.779Z,18.40
2019-05-23T12:52:22.262Z,18.40
2019-05-23T12:54:49.757Z,18.60
2019-05-23T12:57:17.592Z,18.60
2019-05-23T12:59:44.686Z,18.40
2019-05-23T13:02:16.595Z,18.60
2019-05-23T13:04:43.984Z,18.70
2019-05-23T13:07:11.241Z,18.90
2019-05-23T13:09:38.808Z,18.90
2019-05-23T13:12:06.083Z,19.00
2019-05-23T13:14:33.491Z,18.80
2019-05-23T13:17:01.787Z,18.60
2019-05-23T13:19:29.338Z,18.50
2019-05-23T13:21:56.606Z,18.40
2019-05-23T13:24:23.990Z,18.40
2019-05-23T13:26:51.538Z,18.40
2019-05-23T13:29:18.823Z,18.60
2019-05-23T13:31:46.186Z,18.70
2019-05-23T13:34:13.534Z,18.70
2019-05-23T13:36:40.989Z,18.90
2019-05-23T13:39:09.777Z,19.00
2019-05-23T13:41:37.540Z,19.00
2019-05-23T13:44:05.415Z,19.10
2019-05-23T13:46:33.004Z,19.20
2019-05-23T13:49:00.212Z,19.30
2019-05-23T13:51:27.574Z,19.30
2019-05-23T13:53:54.662Z,19.30
2019-05-23T13:56:21.897Z,19.30
2019-05-23T13:58:49.450Z,19.40
2019-05-23T14:01:17.801Z,19.40
2019-05-23T14:03:45.087Z,19.50
2019-05-23T14:06:12.621Z,19.50
2019-05-23T14:08:40.460Z,19.50
2019-05-23T14:11:07.713Z,19.50
2019-05-23T14:13:34.911Z,19.60
2019-05-23T14:16:04.219Z,19.80
2019-05-23T14:18:32.635Z,19.80
2019-05-23T14:20:59.770Z,19.90
2019-05-23T14:23:31.086Z,20.00
2019-05-23T14:25:59.075Z,20.00
2019-05-23T14:28:26.870Z,20.00
2019-05-23T14:31:01.297Z,20.10
2019-05-23T14:33:40.790Z,20.10
2019-05-23T14:36:13.710Z,19.90
2019-05-23T14:38:41.294Z,19.80
2019-05-23T14:41:08.779Z,19.70
2019-05-23T14:43:36.193Z,19.70
2019-05-23T14:46:06.219Z,19.60
2019-05-23T14:49:10.922Z,19.60
2019-05-23T14:51:44.670Z,19.50
2019-05-23T14:54:16.740Z,19.50
2019-05-23T14:56:44.178Z,19.40
2019-05-23T14:59:11.788Z,19.30
2019-05-23T15:01:41.813Z,19.20
2019-05-23T15:04:09.446Z,19.10
2019-05-23T15:06:37.135Z,19.00
2019-05-23T15:09:06.076Z,19.00
2019-05-23T15:11:33.530Z,18.90
2019-05-23T15:14:01.003Z,19.00
2019-05-23T15:16:28.398Z,19.00
2019-05-23T15:18:56.136Z,19.10
2019-05-23T15:21:23.323Z,19.10
2019-05-23T15:23:51.532Z,19.10
2019-05-23T15:26:24.193Z,19.10
2019-05-23T15:28:51.325Z,19.00
2019-05-23T15:31:20.647Z,19.00
2019-05-23T15:33:47.863Z,18.90
2019-05-23T15:36:15.364Z,18.80
2019-05-23T15:38:42.990Z,18.90
2019-05-23T15:41:10.175Z,19.10
2019-05-23T15:43:37.490Z,19.10
2019-05-23T15:46:04.867Z,19.10
2019-05-23T15:48:32.075Z,19.00
2019-05-23T15:50:59.721Z,18.90
2019-05-23T15:53:38.446Z,18.80
2019-05-23T15:56:28.049Z,18.80
2019-05-23T15:59:00.319Z,18.80
2019-05-23T16:01:36.888Z,18.60
2019-05-23T16:04:08.284Z,18.50
2019-05-23T16:06:37.068Z,18.50
2019-05-23T16:09:25.489Z,18.60
2019-05-23T16:11:38.463Z,18.60
2019-05-23T16:14:06.743Z,18.50
2019-05-23T16:16:34.497Z,18.50
2019-05-23T16:19:01.894Z,18.60
2019-05-23T16:21:30.091Z,18.60
2019-05-23T16:23:57.711Z,18.60
2019-05-23T16:26:25.188Z,18.60
2019-05-23T16:28:52.474Z,18.50
2019-05-23T16:31:19.641Z,18.50
2019-05-23T16:33:48.301Z,18.40
2019-05-23T16:36:15.597Z,18.40
2019-05-23T16:38:43.288Z,18.40
2019-05-23T16:41:11.784Z,18.30
2019-05-23T16:43:39.155Z,18.30
2019-05-23T16:46:06.439Z,18.30
2019-05-23T16:48:33.527Z,18.30
2019-05-23T16:51:00.761Z,18.20
2019-05-23T16:53:28.043Z,18.10
2019-05-23T16:56:07.042Z,18.10
2019-05-23T16:58:48.872Z,18.00
2019-05-23T17:01:24.781Z,18.00
2019-05-23T17:04:00.534Z,18.00
2019-05-23T17:06:34.158Z,17.90
2019-05-23T17:09:35.671Z,17.90
2019-05-23T17:12:18.609Z,17.90
2019-05-23T17:14:59.126Z,17.80
2019-05-23T17:18:01.497Z,17.80
2019-05-23T17:20:35.166Z,17.90
2019-05-23T17:23:20.521Z,17.90
2019-05-23T17:25:55.370Z,17.90
2019-05-23T17:28:29.646Z,17.90
2019-05-23T17:31:00.426Z,17.90
2019-05-23T17:33:27.872Z,17.90
2019-05-23T17:35:55.190Z,17.90
2019-05-23T17:38:23.192Z,17.80
2019-05-23T17:40:50.458Z,17.80
2019-05-23T17:43:17.909Z,17.80
2019-05-23T17:45:45.142Z,17.80
2019-05-23T17:48:12.420Z,17.80
2019-05-23T17:50:40.022Z,17.80
2019-05-23T17:53:07.430Z,17.80
2019-05-23T17:55:35.292Z,17.80
2019-05-23T17:58:02.573Z,17.80
2019-05-23T18:00:37.052Z,17.70
2019-05-23T18:03:04.918Z,17.70
2019-05-23T18:05:32.494Z,17.60
2019-05-23T18:08:00.675Z,17.60
2019-05-23T18:10:44.162Z,17.50
2019-05-23T18:12:58.321Z,17.40
2019-05-23T18:15:26.005Z,17.50
2019-05-23T18:17:53.725Z,17.40
2019-05-23T18:20:21.835Z,17.30
2019-05-23T18:22:49.021Z,17.20
2019-05-23T18:25:16.505Z,17.10
2019-05-23T18:27:45.087Z,17.00
2019-05-23T18:30:31.733Z,17.00
2019-05-23T18:33:00.377Z,17.00
2019-05-23T18:35:29.438Z,16.80
2019-05-23T18:37:58.089Z,16.80
2019-05-23T18:40:25.580Z,16.70
2019-05-23T18:42:53.144Z,16.70
2019-05-23T18:45:20.562Z,16.60
2019-05-23T18:47:47.946Z,16.60
2019-05-23T18:50:15.935Z,16.50
2019-05-23T18:52:43.209Z,16.40
2019-05-23T18:55:10.642Z,16.40
2019-05-23T18:57:38.500Z,16.20
2019-05-23T19:00:06.354Z,16.10
2019-05-23T19:02:35.158Z,16.20
2019-05-23T19:05:04.154Z,16.00
2019-05-23T19:07:31.668Z,16.00
2019-05-23T19:09:59.722Z,15.90
2019-05-23T19:12:27.090Z,15.80
2019-05-23T19:14:54.553Z,15.80
2019-05-23T19:17:22.448Z,15.70
2019-05-23T19:19:49.813Z,15.70
2019-05-23T19:22:17.575Z,15.60
2019-05-23T19:24:45.051Z,15.50
2019-05-23T19:27:14.483Z,15.40
2019-05-23T19:29:42.102Z,15.40
2019-05-23T19:32:10.305Z,15.30
2019-05-23T19:34:37.937Z,15.20
2019-05-23T19:37:07.417Z,15.20
2019-05-23T19:39:36.632Z,15.10
2019-05-23T19:42:04.646Z,15.10
2019-05-23T19:44:32.322Z,15.00
2019-05-23T19:46:59.583Z,14.90
2019-05-23T19:49:27.545Z,14.90
2019-05-23T19:51:55.530Z,14.80
2019-05-23T19:54:22.843Z,14.80
2019-05-23T19:56:50.056Z,14.80
2019-05-23T19:59:20.748Z,14.70
2019-05-23T20:02:13.017Z,14.60
2019-05-23T20:04:44.506Z,14.50
2019-05-23T20:07:15.359Z,14.50
2019-05-23T20:09:41.577Z,14.50
2019-05-23T20:12:08.665Z,14.50
2019-05-23T20:14:35.993Z,14.30
2019-05-23T20:17:03.502Z,14.10
2019-05-23T20:19:30.857Z,14.00
2019-05-23T20:21:58.452Z,14.00
2019-05-23T20:24:25.670Z,13.90
2019-05-23T20:26:53.078Z,13.90
2019-05-23T20:29:20.357Z,13.90
2019-05-23T20:31:48.596Z,13.80
2019-05-23T20:34:15.858Z,13.80
2019-05-23T20:36:43.064Z,13.80
2019-05-23T20:39:10.202Z,13.70
2019-05-23T20:41:38.092Z,13.60
2019-05-23T20:44:05.595Z,13.60
2019-05-23T20:46:33.048Z,13.60
2019-05-23T20:49:00.317Z,13.50
2019-05-23T20:51:27.745Z,13.50
2019-05-23T20:53:54.805Z,13.40
2019-05-23T20:56:22.478Z,13.30
2019-05-23T20:58:49.720Z,13.30
2019-05-23T21:01:25.406Z,13.20
2019-05-23T21:03:53.993Z,13.20
2019-05-23T21:06:21.508Z,13.20
2019-05-23T21:08:48.971Z,13.20
2019-05-23T21:11:17.127Z,13.10
2019-05-23T21:13:44.205Z,13.10
2019-05-23T21:16:11.416Z,13.10
2019-05-23T21:18:38.709Z,13.10
2019-05-23T21:21:06.014Z,13.00
2019-05-23T21:23:33.717Z,13.00
2019-05-23T21:26:04.617Z,12.80
2019-05-23T21:28:32.150Z,12.80
2019-05-23T21:31:00.137Z,12.60
2019-05-23T21:33:28.781Z,12.60
2019-05-23T21:35:55.945Z,12.60
2019-05-23T21:38:24.109Z,12.60
2019-05-23T21:40:51.798Z,12.70
2019-05-23T21:43:19.441Z,12.70
2019-05-23T21:45:46.846Z,12.60
2019-05-23T21:48:15.452Z,12.50
2019-05-23T21:50:42.634Z,12.50
2019-05-23T21:53:10.629Z,12.60
2019-05-23T21:55:39.157Z,12.50
2019-05-23T21:58:06.949Z,12.50
2019-05-23T22:01:24.071Z,12.50
2019-05-23T22:04:04.691Z,12.40
2019-05-23T22:06:33.361Z,12.30
2019-05-23T22:09:00.793Z,12.20
2019-05-23T22:11:28.315Z,12.20
2019-05-23T22:13:55.474Z,12.20
2019-05-23T22:16:23.425Z,12.20
2019-05-23T22:18:50.610Z,12.10
2019-05-23T22:21:17.891Z,12.00
2019-05-23T22:23:45.215Z,12.10
2019-05-23T22:26:12.298Z,12.00
2019-05-23T22:28:39.488Z,11.80
2019-05-23T22:31:07.700Z,11.70
2019-05-23T22:33:37.549Z,11.50
2019-05-23T22:36:06.448Z,11.30
2019-05-23T22:38:33.791Z,11.40
2019-05-23T22:41:01.209Z,11.50
2019-05-23T22:43:28.481Z,11.60
2019-05-23T22:45:55.752Z,11.50
2019-05-23T22:48:23.409Z,11.30
2019-05-23T22:50:50.543Z,11.20
2019-05-23T22:53:17.614Z,11.40
2019-05-23T22:55:44.596Z,11.40
2019-05-23T22:58:11.751Z,11.30
2019-05-23T23:00:40.853Z,11.30
2019-05-23T23:03:08.013Z,11.30
2019-05-23T23:05:35.152Z,11.20
2019-05-23T23:08:03.493Z,11.20
2019-05-23T23:10:31.026Z,11.20
2019-05-23T23:12:58.186Z,11.30
2019-05-23T23:15:27.138Z,11.40
2019-05-23T23:17:55.004Z,11.40
2019-05-23T23:20:22.304Z,11.20
2019-05-23T23:22:49.557Z,11.00
2019-05-23T23:25:16.734Z,11.00
2019-05-23T23:27:43.892Z,11.10
2019-05-23T23:30:14.213Z,11.20
2019-05-23T23:32:41.402Z,11.20
2019-05-23T23:35:08.565Z,11.20
2019-05-23T23:37:35.733Z,11.20
2019-05-23T23:40:03.535Z,11.10
2019-05-23T23:42:30.613Z,11.00
2019-05-23T23:45:15.696Z,10.90
2019-05-23T23:48:00.810Z,10.80
2019-05-23T23:50:46.110Z,10.80
2019-05-23T23:53:31.215Z,10.80
2019-05-23T23:56:16.436Z,10.80
2019-05-23T23:58:43.156Z,10.80
